createdAt,value
2022-08-07T00:03:08.696Z,1.55
2022-08-07T00:05:37.976Z,1.45
2022-08-07T00:08:05.662Z,1.55
2022-08-07T00:10:48.351Z,1.40
2022-08-07T00:13:25.738Z,1.52
2022-08-07T00:15:54.041Z,1.67
2022-08-07T00:18:25.103Z,1.30
2022-08-07T00:20:57.356Z,1.42
2022-08-07T00:23:24.941Z,1.85
2022-08-07T00:26:00.009Z,1.42
2022-08-07T00:28:33.821Z,1.20
2022-08-07T00:31:06.223Z,1.30
2022-08-07T00:33:41.824Z,1.25
2022-08-07T00:36:09.376Z,1.35
2022-08-07T00:38:39.087Z,1.10
2022-08-07T00:41:14.508Z,1.27
2022-08-07T00:44:00.598Z,1.20
2022-08-07T00:46:29.168Z,1.40
2022-08-07T00:48:55.956Z,1.00
2022-08-07T00:51:22.807Z,1.40
2022-08-07T00:56:23.588Z,1.40
2022-08-07T00:59:00.254Z,1.10
2022-08-07T01:01:29.758Z,1.30
2022-08-07T01:04:11.014Z,1.35
2022-08-07T01:07:11.721Z,1.38
2022-08-07T01:10:04.708Z,1.25
2022-08-07T01:12:30.197Z,1.55
2022-08-07T01:15:00.996Z,1.33
2022-08-07T01:17:29.830Z,1.42
2022-08-07T01:20:06.556Z,1.55
2022-08-07T01:22:36.313Z,1.30
2022-08-07T01:25:05.238Z,1.10
2022-08-07T01:27:52.492Z,1.20
2022-08-07T01:30:21.483Z,1.40
2022-08-07T01:32:57.055Z,1.40
2022-08-07T01:35:25.397Z,1.40
2022-08-07T01:38:12.593Z,1.80
2022-08-07T01:40:56.017Z,1.38
2022-08-07T01:43:23.678Z,1.20
2022-08-07T01:45:54.423Z,1.30
2022-08-07T01:48:30.580Z,1.20
2022-08-07T01:51:24.444Z,1.17
2022-08-07T01:54:06.249Z,1.20
2022-08-07T01:56:55.284Z,1.40
2022-08-07T01:59:31.070Z,1.10
2022-08-07T02:02:07.125Z,1.10
2022-08-07T02:04:56.133Z,1.25
2022-08-07T02:07:44.863Z,1.15
2022-08-07T02:10:16.399Z,1.00
2022-08-07T02:12:46.560Z,1.10
2022-08-07T02:15:22.620Z,1.00
2022-08-07T02:17:51.859Z,1.20
2022-08-07T02:20:23.951Z,1.15
2022-08-07T02:22:57.524Z,0.98
2022-08-07T02:26:10.874Z,0.90
2022-08-07T02:28:25.388Z,1.30
2022-08-07T02:30:55.763Z,1.10
2022-08-07T02:33:42.272Z,1.02
2022-08-07T02:39:01.074Z,1.10
2022-08-07T02:41:33.163Z,1.13
2022-08-07T02:44:02.056Z,1.20
2022-08-07T02:46:31.122Z,1.35
2022-08-07T02:48:58.682Z,1.35
2022-08-07T02:51:42.735Z,1.00
2022-08-07T02:54:19.403Z,1.00
2022-08-07T02:56:48.603Z,1.00
2022-08-07T02:59:24.108Z,1.20
2022-08-07T03:01:58.052Z,1.40
2022-08-07T03:04:30.422Z,1.50
2022-08-07T03:07:07.120Z,1.25
2022-08-07T03:09:44.603Z,1.10
2022-08-07T03:12:21.691Z,1.20
2022-08-07T03:14:52.580Z,1.08
2022-08-07T03:17:22.112Z,1.20
2022-08-07T03:19:52.872Z,1.13
2022-08-07T03:22:24.237Z,1.08
2022-08-07T03:24:59.783Z,1.00
2022-08-07T03:27:30.494Z,1.20
2022-08-07T03:30:18.715Z,0.98
2022-08-07T03:32:58.327Z,1.30
2022-08-07T03:35:27.953Z,1.08
2022-08-07T03:38:13.286Z,1.10
2022-08-07T03:40:44.165Z,1.05
2022-08-07T03:43:13.765Z,1.03
2022-08-07T03:45:47.828Z,1.42
2022-08-07T03:48:15.885Z,0.95
2022-08-07T03:50:55.948Z,1.05
2022-08-07T03:53:30.273Z,1.10
2022-08-07T03:56:19.264Z,1.23
2022-08-07T03:59:08.219Z,1.30
2022-08-07T04:01:48.871Z,1.25
2022-08-07T04:04:19.258Z,1.50
2022-08-07T04:06:50.978Z,1.15
2022-08-07T04:09:23.427Z,1.00
2022-08-07T04:12:27.200Z,1.27
2022-08-07T04:14:46.026Z,1.20
2022-08-07T04:17:21.485Z,1.23
2022-08-07T04:19:52.050Z,1.05
2022-08-07T04:22:27.628Z,1.10
2022-08-07T04:25:00.951Z,1.40
2022-08-07T04:27:28.235Z,1.30
2022-08-07T04:30:01.260Z,1.50
2022-08-07T04:32:34.249Z,1.30
2022-08-07T04:35:05.746Z,1.10
2022-08-07T04:38:00.855Z,1.10
2022-08-07T04:40:22.528Z,1.40
2022-08-07T04:42:56.295Z,1.30
2022-08-07T04:45:57.940Z,1.30
2022-08-07T04:48:38.030Z,1.02
2022-08-07T04:51:19.341Z,1.10
2022-08-07T04:54:01.952Z,1.10
2022-08-07T04:58:15.735Z,1.25
2022-08-07T05:00:09.695Z,1.45
2022-08-07T05:03:17.321Z,1.20
2022-08-07T05:06:16.320Z,1.02
2022-08-07T05:09:08.349Z,1.35
2022-08-07T05:11:58.229Z,1.30
2022-08-07T05:14:53.517Z,1.17
2022-08-07T05:17:51.965Z,1.10
2022-08-07T05:20:16.173Z,1.08
2022-08-07T05:22:47.664Z,1.13
2022-08-07T05:25:26.278Z,1.00
2022-08-07T05:28:20.492Z,1.20
2022-08-07T05:30:50.858Z,1.08
2022-08-07T05:33:20.900Z,1.20
2022-08-07T05:35:50.850Z,1.20
2022-08-07T05:38:57.966Z,1.17
2022-08-07T05:41:12.248Z,1.08
2022-08-07T05:44:07.779Z,1.10
2022-08-07T05:46:36.288Z,1.30
2022-08-07T05:49:11.899Z,1.45
2022-08-07T05:51:42.345Z,1.10
2022-08-07T05:54:30.189Z,1.38
2022-08-07T05:57:01.174Z,1.08
2022-08-07T05:59:46.614Z,1.25
2022-08-07T06:02:29.025Z,1.63
2022-08-07T06:05:15.333Z,1.35
2022-08-07T06:08:14.294Z,1.30
2022-08-07T06:10:33.250Z,1.50
2022-08-07T06:13:04.040Z,1.95
2022-08-07T06:15:39.210Z,1.30
2022-08-07T06:18:12.163Z,1.50
2022-08-07T06:20:49.625Z,1.67
2022-08-07T06:24:38.779Z,1.20
2022-08-07T06:26:17.384Z,1.67
2022-08-07T06:28:49.125Z,1.75
2022-08-07T06:31:18.348Z,1.40
2022-08-07T06:33:51.486Z,1.40
2022-08-07T06:36:34.920Z,1.63
2022-08-07T06:40:15.756Z,1.80
2022-08-07T06:42:16.100Z,2.38
2022-08-07T06:44:46.015Z,1.50
2022-08-07T06:47:20.974Z,1.98
2022-08-07T06:49:51.193Z,2.00
2022-08-07T06:52:31.354Z,2.58
2022-08-07T06:55:32.250Z,1.90
2022-08-07T06:58:04.556Z,2.10
2022-08-07T07:00:42.310Z,1.75
2022-08-07T07:03:11.124Z,1.70
2022-08-07T07:06:04.151Z,2.25
2022-08-07T07:08:32.998Z,1.65
2022-08-07T07:11:13.994Z,1.58
2022-08-07T07:13:57.491Z,1.38
2022-08-07T07:16:36.638Z,1.52
2022-08-07T07:19:55.176Z,1.50
2022-08-07T07:22:11.995Z,1.17
2022-08-07T07:25:14.198Z,1.30
2022-08-07T07:28:42.406Z,1.17
2022-08-07T07:31:10.875Z,1.00
2022-08-07T07:33:42.212Z,1.02
2022-08-07T07:36:17.262Z,1.20
2022-08-07T07:38:46.265Z,0.88
2022-08-07T07:41:17.702Z,1.95
2022-08-07T07:44:17.596Z,1.58
2022-08-07T07:46:55.765Z,1.20
2022-08-07T07:50:34.754Z,1.13
2022-08-07T07:52:16.404Z,0.80
2022-08-07T07:54:51.094Z,0.70
2022-08-07T07:57:43.794Z,0.80
2022-08-07T08:00:09.428Z,0.60
2022-08-07T08:03:01.150Z,0.60
2022-08-07T08:05:30.275Z,0.60
2022-08-07T08:08:34.741Z,0.60
2022-08-07T08:11:08.204Z,0.60
2022-08-07T08:13:52.749Z,0.70
2022-08-07T08:16:34.992Z,0.70
2022-08-07T08:19:09.746Z,0.50
2022-08-07T08:22:14.885Z,0.60
2022-08-07T08:25:24.886Z,0.52
2022-08-07T08:27:56.936Z,0.50
2022-08-07T08:30:31.986Z,0.50
2022-08-07T08:33:05.351Z,0.50
2022-08-07T08:35:47.040Z,0.70
2022-08-07T08:38:20.501Z,0.40
2022-08-07T08:41:16.884Z,0.30
2022-08-07T08:44:00.669Z,2.05
2022-08-07T08:46:53.063Z,2.40
2022-08-07T08:49:33.678Z,0.52
2022-08-07T08:52:30.248Z,0.70
2022-08-07T08:55:10.159Z,0.50
2022-08-07T08:58:02.922Z,0.60
2022-08-07T09:00:42.581Z,0.40
2022-08-07T09:03:47.988Z,0.50
2022-08-07T09:06:59.370Z,0.40
2022-08-07T09:09:38.311Z,0.25
2022-08-07T09:12:30.800Z,0.40
2022-08-07T09:16:21.524Z,0.40
2022-08-07T09:18:35.026Z,0.30
2022-08-07T09:22:10.393Z,0.98
2022-08-07T09:24:58.976Z,0.28
2022-08-07T09:28:01.806Z,0.30
2022-08-07T09:31:01.264Z,0.35
2022-08-07T09:34:03.053Z,0.45
2022-08-07T09:36:49.663Z,0.43
2022-08-07T09:39:55.523Z,0.40
2022-08-07T09:42:22.968Z,0.52
2022-08-07T09:47:25.582Z,0.30
2022-08-07T09:48:11.556Z,0.43
2022-08-07T09:50:59.514Z,0.40
2022-08-07T09:53:41.255Z,0.55
2022-08-07T09:56:37.483Z,0.40
2022-08-07T10:00:00.786Z,0.30
2022-08-07T10:03:08.199Z,1.35
2022-08-07T10:06:00.135Z,0.40
2022-08-07T10:08:55.398Z,0.50
2022-08-07T10:12:01.012Z,0.40
2022-08-07T10:14:54.227Z,0.57
2022-08-07T10:18:00.770Z,0.50
2022-08-07T10:21:00.443Z,0.30
2022-08-07T10:24:06.045Z,0.43
2022-08-07T10:26:52.948Z,0.50
2022-08-07T10:29:35.469Z,0.47
2022-08-07T10:32:51.419Z,0.40
2022-08-07T10:35:55.325Z,0.25
2022-08-07T10:38:48.469Z,1.70
2022-08-07T10:41:54.723Z,0.50
2022-08-07T10:44:38.966Z,0.40
2022-08-07T10:47:26.995Z,0.50
2022-08-07T10:50:25.904Z,0.35
2022-08-07T10:53:24.980Z,0.50
2022-08-07T10:56:32.908Z,0.50
2022-08-07T10:59:21.158Z,1.83
2022-08-07T11:02:05.370Z,2.30
2022-08-07T11:05:18.606Z,0.55
2022-08-07T11:08:00.338Z,3.67
2022-08-07T11:10:28.096Z,1.40
2022-08-07T11:14:41.764Z,0.73
2022-08-07T11:15:59.816Z,0.60
2022-08-07T11:18:50.857Z,2.78
2022-08-07T11:21:44.923Z,1.02
2022-08-07T11:24:20.534Z,0.60
2022-08-07T11:27:01.180Z,0.40
2022-08-07T11:29:41.993Z,1.05
2022-08-07T11:32:25.552Z,0.60
2022-08-07T11:35:02.533Z,0.40
2022-08-07T11:37:38.373Z,0.50
2022-08-07T11:40:49.519Z,0.60
2022-08-07T11:43:54.465Z,0.40
2022-08-07T11:46:25.765Z,0.50
2022-08-07T11:49:51.044Z,0.40
2022-08-07T11:52:03.153Z,0.40
2022-08-07T11:54:54.991Z,0.50
2022-08-07T11:57:59.506Z,0.40
2022-08-07T12:01:02.575Z,0.40
2022-08-07T12:03:46.434Z,0.43
2022-08-07T12:06:50.773Z,0.40
2022-08-07T12:09:42.740Z,0.70
2022-08-07T12:12:36.456Z,0.60
2022-08-07T12:15:17.303Z,0.40
2022-08-07T12:18:12.847Z,0.30
2022-08-07T12:21:00.734Z,0.47
2022-08-07T12:24:36.901Z,0.57
2022-08-07T12:27:16.740Z,0.43
2022-08-07T12:29:54.467Z,0.30
2022-08-07T12:32:34.727Z,0.30
2022-08-07T12:35:10.625Z,0.60
2022-08-07T12:38:10.170Z,0.40
2022-08-07T12:40:50.579Z,0.30
2022-08-07T12:44:01.788Z,0.60
2022-08-07T12:46:10.434Z,0.30
2022-08-07T12:48:55.253Z,0.40
2022-08-07T12:51:51.048Z,0.50
2022-08-07T12:54:38.537Z,0.68
2022-08-07T12:57:10.120Z,0.60
2022-08-07T12:59:55.257Z,0.40
2022-08-07T13:02:39.829Z,0.50
2022-08-07T13:06:01.882Z,0.40
2022-08-07T13:08:18.582Z,0.40
2022-08-07T13:11:16.561Z,0.52
2022-08-07T13:14:23.790Z,0.40
2022-08-07T13:17:18.327Z,0.50
2022-08-07T13:22:34.188Z,0.40
2022-08-07T13:25:23.918Z,0.45
2022-08-07T13:28:12.413Z,0.50
2022-08-07T13:31:01.747Z,0.35
2022-08-07T13:34:32.757Z,0.50
2022-08-07T13:40:34.946Z,0.43
2022-08-07T13:42:59.944Z,0.50
2022-08-07T13:46:10.993Z,0.40
2022-08-07T13:48:34.092Z,0.40
2022-08-07T13:51:20.391Z,0.70
2022-08-07T13:54:00.795Z,0.50
2022-08-07T13:56:35.602Z,0.40
2022-08-07T13:59:15.698Z,0.60
2022-08-07T14:02:04.137Z,0.60
2022-08-07T14:04:36.057Z,0.60
2022-08-07T14:07:09.597Z,0.57
2022-08-07T14:10:00.659Z,0.40
2022-08-07T14:12:49.424Z,0.60
2022-08-07T14:15:36.853Z,0.50
2022-08-07T14:18:16.120Z,0.40
2022-08-07T14:22:00.666Z,0.40
2022-08-07T14:24:09.962Z,0.50
2022-08-07T14:26:54.928Z,0.60
2022-08-07T14:30:09.298Z,0.50
2022-08-07T14:32:20.639Z,0.50
2022-08-07T14:34:53.468Z,0.47
2022-08-07T14:40:26.538Z,0.60
2022-08-07T14:43:55.467Z,0.60
2022-08-07T14:45:56.376Z,0.50
2022-08-07T14:48:32.584Z,0.60
2022-08-07T14:51:15.722Z,0.60
2022-08-07T14:54:05.782Z,0.77
2022-08-07T14:56:33.523Z,0.50
2022-08-07T14:59:13.735Z,0.73
2022-08-07T15:01:58.675Z,0.68
2022-08-07T15:07:23.819Z,0.50
2022-08-07T15:13:05.806Z,0.45
2022-08-07T15:16:14.614Z,0.57
2022-08-07T15:18:47.593Z,0.60
2022-08-07T15:27:17.199Z,0.63
2022-08-07T15:36:00.773Z,0.60
2022-08-07T15:38:31.110Z,0.55
2022-08-07T15:41:23.357Z,0.60
2022-08-07T15:44:07.453Z,0.60
2022-08-07T15:46:45.915Z,0.70
2022-08-07T15:52:13.663Z,0.60
2022-08-07T15:54:44.297Z,0.40
2022-08-07T15:57:40.287Z,0.45
2022-08-07T16:00:06.332Z,0.50
2022-08-07T16:02:41.266Z,0.63
2022-08-07T16:05:15.874Z,0.50
2022-08-07T16:08:31.521Z,0.40
2022-08-07T16:11:28.757Z,0.60
2022-08-07T16:14:45.092Z,0.50
2022-08-07T16:18:12.266Z,0.60
2022-08-07T16:22:01.529Z,0.50
2022-08-07T16:24:33.690Z,0.40
2022-08-07T16:27:00.085Z,0.50
2022-08-07T16:30:11.593Z,0.50
2022-08-07T16:32:54.138Z,0.52
2022-08-07T16:35:58.906Z,0.70
2022-08-07T16:39:06.502Z,0.50
2022-08-07T16:41:48.807Z,0.40
2022-08-07T16:44:40.553Z,0.38
2022-08-07T16:47:51.242Z,0.50
2022-08-07T16:50:38.827Z,0.70
2022-08-07T16:54:01.470Z,0.40
2022-08-07T16:56:22.029Z,0.43
2022-08-07T16:59:10.961Z,0.50
2022-08-07T17:01:47.547Z,0.55
2022-08-07T17:04:57.445Z,0.52
2022-08-07T17:07:55.636Z,0.57
2022-08-07T17:10:54.837Z,0.60
2022-08-07T17:13:40.387Z,0.50
2022-08-07T17:16:43.713Z,0.50
2022-08-07T17:20:02.362Z,0.40
2022-08-07T17:22:37.676Z,0.47
2022-08-07T17:25:12.966Z,0.30
2022-08-07T17:28:06.814Z,0.60
2022-08-07T17:31:16.428Z,0.52
2022-08-07T17:34:34.538Z,0.30
2022-08-07T17:38:08.192Z,0.50
2022-08-07T17:40:30.243Z,0.40
2022-08-07T17:43:18.199Z,0.47
2022-08-07T17:45:55.516Z,0.47
2022-08-07T17:48:34.183Z,0.60
2022-08-07T17:51:11.474Z,0.57
2022-08-07T17:54:11.644Z,0.50
2022-08-07T17:56:49.914Z,0.40
2022-08-07T17:59:43.791Z,0.60
2022-08-07T18:02:16.054Z,0.60
2022-08-07T18:04:55.542Z,0.70
2022-08-07T18:07:48.577Z,0.38
2022-08-07T18:12:08.088Z,0.20
2022-08-07T18:13:43.151Z,0.40
2022-08-07T18:16:31.111Z,0.50
2022-08-07T18:21:08.229Z,0.63
2022-08-07T18:22:27.980Z,0.70
2022-08-07T18:25:18.981Z,0.60
2022-08-07T18:28:10.336Z,0.40
2022-08-07T18:31:03.333Z,1.17
2022-08-07T18:36:41.188Z,0.70
2022-08-07T18:40:08.173Z,0.73
2022-08-07T18:42:21.422Z,0.80
2022-08-07T18:45:45.076Z,1.13
2022-08-07T18:50:05.589Z,0.70
2022-08-07T18:52:33.595Z,0.77
2022-08-07T18:54:52.818Z,1.00
2022-08-07T18:57:40.057Z,0.65
2022-08-07T19:00:34.282Z,0.80
2022-08-07T19:03:17.636Z,0.60
2022-08-07T19:06:02.426Z,0.70
2022-08-07T19:08:52.837Z,0.50
2022-08-07T19:11:36.620Z,0.60
2022-08-07T19:14:26.197Z,0.70
2022-08-07T19:17:09.276Z,0.60
2022-08-07T19:19:48.729Z,0.50
2022-08-07T19:22:31.066Z,0.47
2022-08-07T19:25:06.875Z,0.52
2022-08-07T19:28:56.894Z,0.50
2022-08-07T19:31:00.064Z,0.47
2022-08-07T19:33:18.944Z,0.80
2022-08-07T19:36:01.737Z,0.60
2022-08-07T19:38:32.129Z,1.05
2022-08-07T19:41:02.903Z,0.60
2022-08-07T19:43:49.508Z,0.47
2022-08-07T19:46:26.393Z,0.50
2022-08-07T19:49:07.257Z,0.57
2022-08-07T19:51:50.873Z,0.60
2022-08-07T19:54:35.149Z,0.70
2022-08-07T19:58:02.803Z,0.85
2022-08-07T20:00:09.044Z,0.60
2022-08-07T20:02:52.159Z,0.75
2022-08-07T20:05:27.829Z,0.57
2022-08-07T20:08:03.840Z,0.63
2022-08-07T20:10:55.477Z,0.65
2022-08-07T20:13:50.198Z,0.60
2022-08-07T20:16:35.988Z,0.43
2022-08-07T20:19:06.119Z,0.55
2022-08-07T20:21:47.141Z,0.70
2022-08-07T20:24:24.070Z,0.63
2022-08-07T20:27:01.859Z,0.60
2022-08-07T20:29:49.018Z,0.60
2022-08-07T20:32:40.168Z,0.40
2022-08-07T20:35:21.999Z,0.70
2022-08-07T20:37:59.728Z,0.60
2022-08-07T20:40:32.493Z,0.50
2022-08-07T20:43:09.453Z,0.60
2022-08-07T20:46:25.873Z,0.60
2022-08-07T20:48:33.881Z,0.80
2022-08-07T20:51:04.739Z,0.70
2022-08-07T20:54:04.335Z,0.80
2022-08-07T20:56:30.525Z,0.60
2022-08-07T20:59:05.101Z,0.80
2022-08-07T21:01:45.216Z,0.52
2022-08-07T21:04:28.169Z,0.70
2022-08-07T21:06:59.328Z,0.60
2022-08-07T21:09:52.559Z,0.60
2022-08-07T21:12:30.803Z,0.50
2022-08-07T21:15:05.065Z,0.65
2022-08-07T21:18:03.269Z,0.50
2022-08-07T21:20:30.178Z,0.60
2022-08-07T21:23:08.056Z,0.55
2022-08-07T21:25:56.567Z,0.70
2022-08-07T21:28:48.388Z,0.60
2022-08-07T21:31:49.901Z,0.63
2022-08-07T21:34:48.295Z,0.70
2022-08-07T21:37:24.238Z,0.57
2022-08-07T21:40:13.776Z,0.70
2022-08-07T21:43:05.260Z,0.75
2022-08-07T21:46:05.186Z,0.43
2022-08-07T21:48:57.063Z,0.80
2022-08-07T21:51:51.723Z,0.60
2022-08-07T21:54:38.495Z,0.60
2022-08-07T21:57:52.423Z,0.60
2022-08-07T22:00:25.079Z,0.70
2022-08-07T22:03:05.826Z,0.82
2022-08-07T22:05:48.384Z,1.00
2022-08-07T22:08:20.988Z,0.98
2022-08-07T22:10:53.712Z,0.50
2022-08-07T22:13:24.514Z,0.50
2022-08-07T22:16:41.891Z,0.70
2022-08-07T22:19:32.035Z,0.80
2022-08-07T22:22:21.406Z,0.95
2022-08-07T22:25:26.470Z,0.82
2022-08-07T22:28:30.266Z,0.70
2022-08-07T22:31:45.514Z,0.80
2022-08-07T22:34:13.680Z,0.70
2022-08-07T22:37:18.247Z,0.50
2022-08-07T22:40:10.465Z,0.70
2022-08-07T22:42:44.448Z,0.77
2022-08-07T22:46:04.350Z,0.93
2022-08-07T22:48:31.610Z,0.70
2022-08-07T22:51:04.479Z,1.00
2022-08-07T22:54:05.222Z,0.80
2022-08-07T22:57:01.070Z,0.90
2022-08-07T22:59:51.226Z,0.73
2022-08-07T23:02:27.501Z,0.90
2022-08-07T23:06:07.048Z,0.98
2022-08-07T23:08:23.813Z,0.85
2022-08-07T23:11:18.031Z,0.85
2022-08-07T23:14:16.212Z,0.88
2022-08-07T23:17:21.041Z,0.80
2022-08-07T23:20:40.447Z,0.90
2022-08-07T23:24:05.425Z,0.82
2022-08-07T23:26:25.003Z,0.90
2022-08-07T23:28:58.474Z,0.75
2022-08-07T23:34:23.250Z,1.00
2022-08-07T23:34:47.826Z,1.05
2022-08-07T23:37:20.193Z,0.93
2022-08-07T23:40:25.778Z,1.30
2022-08-07T23:43:16.968Z,1.00
2022-08-07T23:46:11.119Z,0.90
2022-08-07T23:49:15.188Z,0.93
2022-08-07T23:53:11.980Z,1.30
2022-08-07T23:57:30.498Z,1.20
